Mount Vernon, Tennessee
Current Conditions -  °F | °C
As of 6:15 AM on Sunday 21 Dec 2014 (Local Time) from KMMI Reporting Station
Overcast Overcast  
Wind Chill: 34°   Ceiling: 3900
Heat Index: 34°   Visibility: 10mi
Dew Point: 32°   Wind: 0mph
Humidity: 93%   Direction: NA
Pressure: 30.23"   Gusts: NA
Location:  35.4115°N, 84.3643°W
Report Text: KMMI 211115Z AUTO 00000KT 10SM OVC039 01/00 A3023 RMK
Loading
Personal Weather Stations






























Interactive Weather Map New forecast layout! Learn more

10-Day Weather Forecast

Advertisements
Track Severe Weather on mobile